sensor_id;sensor_type;location;lat;lon;timestamp;temperature;humidity
42245;DHT22;27912;51.828;5.688;2023-07-09T00:01:35;22.20;99.90
42245;DHT22;27912;51.828;5.688;2023-07-09T00:04:02;22.20;99.90
42245;DHT22;27912;51.828;5.688;2023-07-09T00:06:28;22.20;99.90
42245;DHT22;27912;51.828;5.688;2023-07-09T00:08:53;22.20;99.90
42245;DHT22;27912;51.828;5.688;2023-07-09T00:11:19;22.20;99.90
42245;DHT22;27912;51.828;5.688;2023-07-09T00:13:44;22.10;99.90
42245;DHT22;27912;51.828;5.688;2023-07-09T00:16:15;22.10;99.90
42245;DHT22;27912;51.828;5.688;2023-07-09T00:18:42;22.10;99.90
42245;DHT22;27912;51.828;5.688;2023-07-09T00:21:08;22.10;99.90
42245;DHT22;27912;51.828;5.688;2023-07-09T00:23:33;22.00;99.90
42245;DHT22;27912;51.828;5.688;2023-07-09T00:25:59;22.00;99.90
42245;DHT22;27912;51.828;5.688;2023-07-09T00:28:24;22.00;99.90
42245;DHT22;27912;51.828;5.688;2023-07-09T00:30:50;21.90;99.90
42245;DHT22;27912;51.828;5.688;2023-07-09T00:33:17;21.90;99.90
42245;DHT22;27912;51.828;5.688;2023-07-09T00:35:46;21.90;99.90
42245;DHT22;27912;51.828;5.688;2023-07-09T00:38:20;21.80;99.90
42245;DHT22;27912;51.828;5.688;2023-07-09T00:41:02;21.80;99.90
42245;DHT22;27912;51.828;5.688;2023-07-09T00:43:34;21.80;99.90
42245;DHT22;27912;51.828;5.688;2023-07-09T00:48:53;21.80;99.90
42245;DHT22;27912;51.828;5.688;2023-07-09T00:51:20;21.80;99.90
42245;DHT22;27912;51.828;5.688;2023-07-09T00:53:49;21.80;99.90
42245;DHT22;27912;51.828;5.688;2023-07-09T00:56:27;21.80;99.90
42245;DHT22;27912;51.828;5.688;2023-07-09T00:58:55;21.90;99.90
42245;DHT22;27912;51.828;5.688;2023-07-09T01:01:22;21.80;99.90
42245;DHT22;27912;51.828;5.688;2023-07-09T01:03:52;21.80;99.90
42245;DHT22;27912;51.828;5.688;2023-07-09T01:06:23;21.80;99.90
42245;DHT22;27912;51.828;5.688;2023-07-09T01:08:50;21.90;99.90
42245;DHT22;27912;51.828;5.688;2023-07-09T01:11:20;21.80;99.90
42245;DHT22;27912;51.828;5.688;2023-07-09T01:13:51;21.80;99.90
42245;DHT22;27912;51.828;5.688;2023-07-09T01:16:18;21.80;99.90
42245;DHT22;27912;51.828;5.688;2023-07-09T01:18:44;21.80;99.90
42245;DHT22;27912;51.828;5.688;2023-07-09T01:21:10;21.80;99.90
42245;DHT22;27912;51.828;5.688;2023-07-09T01:23:45;21.80;99.90
42245;DHT22;27912;51.828;5.688;2023-07-09T01:26:13;21.80;99.90
42245;DHT22;27912;51.828;5.688;2023-07-09T01:28:39;21.70;99.90
42245;DHT22;27912;51.828;5.688;2023-07-09T01:31:10;21.70;99.90
42245;DHT22;27912;51.828;5.688;2023-07-09T01:33:37;21.70;99.90
42245;DHT22;27912;51.828;5.688;2023-07-09T01:36:08;21.60;99.90
42245;DHT22;27912;51.828;5.688;2023-07-09T01:38:34;21.60;99.90
42245;DHT22;27912;51.828;5.688;2023-07-09T01:41:00;21.50;99.90
42245;DHT22;27912;51.828;5.688;2023-07-09T01:43:26;21.60;99.90
42245;DHT22;27912;51.828;5.688;2023-07-09T01:45:53;21.60;99.90
42245;DHT22;27912;51.828;5.688;2023-07-09T01:48:23;21.60;99.90
42245;DHT22;27912;51.828;5.688;2023-07-09T01:50:50;21.50;99.90
42245;DHT22;27912;51.828;5.688;2023-07-09T01:53:19;21.50;99.90
42245;DHT22;27912;51.828;5.688;2023-07-09T01:55:46;21.50;99.90
42245;DHT22;27912;51.828;5.688;2023-07-09T01:58:11;21.40;99.90
42245;DHT22;27912;51.828;5.688;2023-07-09T02:00:37;21.40;99.90
42245;DHT22;27912;51.828;5.688;2023-07-09T02:03:06;21.30;99.90
42245;DHT22;27912;51.828;5.688;2023-07-09T02:05:32;21.20;99.90
42245;DHT22;27912;51.828;5.688;2023-07-09T02:07:58;21.30;99.90
42245;DHT22;27912;51.828;5.688;2023-07-09T02:10:24;21.20;99.90
42245;DHT22;27912;51.828;5.688;2023-07-09T02:12:49;21.20;99.90
42245;DHT22;27912;51.828;5.688;2023-07-09T02:15:15;21.10;99.90
42245;DHT22;27912;51.828;5.688;2023-07-09T02:17:41;21.10;99.90
42245;DHT22;27912;51.828;5.688;2023-07-09T02:20:08;21.00;99.90
42245;DHT22;27912;51.828;5.688;2023-07-09T02:22:36;21.00;99.90
42245;DHT22;27912;51.828;5.688;2023-07-09T02:25:02;20.90;99.90
42245;DHT22;27912;51.828;5.688;2023-07-09T02:27:27;20.90;99.90
42245;DHT22;27912;51.828;5.688;2023-07-09T02:29:53;20.90;99.90
42245;DHT22;27912;51.828;5.688;2023-07-09T02:32:22;20.80;99.90
42245;DHT22;27912;51.828;5.688;2023-07-09T02:34:51;20.80;99.90
42245;DHT22;27912;51.828;5.688;2023-07-09T02:37:19;20.80;99.90
42245;DHT22;27912;51.828;5.688;2023-07-09T02:39:45;20.70;99.90
42245;DHT22;27912;51.828;5.688;2023-07-09T02:42:12;20.70;99.90
42245;DHT22;27912;51.828;5.688;2023-07-09T02:44:39;20.70;99.90
42245;DHT22;27912;51.828;5.688;2023-07-09T02:47:05;20.60;99.90
42245;DHT22;27912;51.828;5.688;2023-07-09T02:49:31;20.60;99.90
42245;DHT22;27912;51.828;5.688;2023-07-09T02:51:56;20.60;99.90
42245;DHT22;27912;51.828;5.688;2023-07-09T02:54:22;20.50;99.90
42245;DHT22;27912;51.828;5.688;2023-07-09T02:56:48;20.60;99.90
42245;DHT22;27912;51.828;5.688;2023-07-09T02:59:14;20.60;99.90
42245;DHT22;27912;51.828;5.688;2023-07-09T03:01:40;20.50;99.90
42245;DHT22;27912;51.828;5.688;2023-07-09T03:04:05;20.50;99.90
42245;DHT22;27912;51.828;5.688;2023-07-09T03:06:32;20.50;99.90
42245;DHT22;27912;51.828;5.688;2023-07-09T03:09:01;20.50;99.90
42245;DHT22;27912;51.828;5.688;2023-07-09T03:11:30;20.50;99.90
42245;DHT22;27912;51.828;5.688;2023-07-09T03:13:56;20.40;99.90
42245;DHT22;27912;51.828;5.688;2023-07-09T03:16:22;20.40;99.90
42245;DHT22;27912;51.828;5.688;2023-07-09T03:18:48;20.40;99.90
42245;DHT22;27912;51.828;5.688;2023-07-09T03:21:13;20.30;99.90
42245;DHT22;27912;51.828;5.688;2023-07-09T03:23:39;20.30;99.90
42245;DHT22;27912;51.828;5.688;2023-07-09T03:26:05;20.30;99.90
42245;DHT22;27912;51.828;5.688;2023-07-09T03:28:31;20.30;99.90
42245;DHT22;27912;51.828;5.688;2023-07-09T03:30:57;20.30;99.90
42245;DHT22;27912;51.828;5.688;2023-07-09T03:33:23;20.30;99.90
42245;DHT22;27912;51.828;5.688;2023-07-09T03:35:50;20.30;99.90
42245;DHT22;27912;51.828;5.688;2023-07-09T03:38:16;20.30;99.90
42245;DHT22;27912;51.828;5.688;2023-07-09T03:40:42;20.30;99.90
42245;DHT22;27912;51.828;5.688;2023-07-09T03:43:09;20.20;99.90
42245;DHT22;27912;51.828;5.688;2023-07-09T03:45:37;20.30;99.90
42245;DHT22;27912;51.828;5.688;2023-07-09T03:48:04;20.30;99.90
42245;DHT22;27912;51.828;5.688;2023-07-09T03:50:30;20.30;99.90
42245;DHT22;27912;51.828;5.688;2023-07-09T03:52:55;20.30;99.90
42245;DHT22;27912;51.828;5.688;2023-07-09T03:55:21;20.30;99.90
42245;DHT22;27912;51.828;5.688;2023-07-09T03:57:47;20.40;99.90
42245;DHT22;27912;51.828;5.688;2023-07-09T04:00:13;20.40;99.90
42245;DHT22;27912;51.828;5.688;2023-07-09T04:02:40;20.40;99.90
42245;DHT22;27912;51.828;5.688;2023-07-09T04:05:07;20.40;99.90
42245;DHT22;27912;51.828;5.688;2023-07-09T04:07:34;20.50;99.90
42245;DHT22;27912;51.828;5.688;2023-07-09T04:09:59;20.60;99.90
42245;DHT22;27912;51.828;5.688;2023-07-09T04:12:25;20.50;99.90
42245;DHT22;27912;51.828;5.688;2023-07-09T04:14:50;20.60;99.90
42245;DHT22;27912;51.828;5.688;2023-07-09T04:17:16;20.70;99.90
42245;DHT22;27912;51.828;5.688;2023-07-09T04:19:41;20.70;99.90
42245;DHT22;27912;51.828;5.688;2023-07-09T04:22:10;20.70;99.90
42245;DHT22;27912;51.828;5.688;2023-07-09T04:24:38;20.80;99.90
42245;DHT22;27912;51.828;5.688;2023-07-09T04:27:04;20.80;99.90
42245;DHT22;27912;51.828;5.688;2023-07-09T04:29:30;20.80;99.90
42245;DHT22;27912;51.828;5.688;2023-07-09T04:31:59;20.90;99.90
42245;DHT22;27912;51.828;5.688;2023-07-09T04:34:25;20.80;99.90
42245;DHT22;27912;51.828;5.688;2023-07-09T04:36:50;21.00;99.90
42245;DHT22;27912;51.828;5.688;2023-07-09T04:39:16;21.00;99.90
42245;DHT22;27912;51.828;5.688;2023-07-09T04:41:41;21.00;99.90
42245;DHT22;27912;51.828;5.688;2023-07-09T04:44:10;21.00;99.90
42245;DHT22;27912;51.828;5.688;2023-07-09T04:46:38;21.00;99.90
42245;DHT22;27912;51.828;5.688;2023-07-09T04:49:03;21.00;99.90
42245;DHT22;27912;51.828;5.688;2023-07-09T04:51:29;21.10;99.90
42245;DHT22;27912;51.828;5.688;2023-07-09T04:53:55;21.20;99.90
42245;DHT22;27912;51.828;5.688;2023-07-09T04:56:21;21.20;99.90
42245;DHT22;27912;51.828;5.688;2023-07-09T04:58:46;21.40;99.90
42245;DHT22;27912;51.828;5.688;2023-07-09T05:01:12;21.50;99.90
42245;DHT22;27912;51.828;5.688;2023-07-09T05:03:37;21.60;99.90
42245;DHT22;27912;51.828;5.688;2023-07-09T05:06:04;21.80;99.90
42245;DHT22;27912;51.828;5.688;2023-07-09T05:08:30;22.00;99.90
42245;DHT22;27912;51.828;5.688;2023-07-09T05:10:56;22.40;99.90
42245;DHT22;27912;51.828;5.688;2023-07-09T05:13:23;22.60;99.90
42245;DHT22;27912;51.828;5.688;2023-07-09T05:15:49;22.80;99.90
42245;DHT22;27912;51.828;5.688;2023-07-09T05:18:16;23.00;99.90
42245;DHT22;27912;51.828;5.688;2023-07-09T05:20:43;23.20;99.90
42245;DHT22;27912;51.828;5.688;2023-07-09T05:23:09;23.30;99.90
42245;DHT22;27912;51.828;5.688;2023-07-09T05:25:35;23.60;99.90
42245;DHT22;27912;51.828;5.688;2023-07-09T05:28:02;23.90;99.90
42245;DHT22;27912;51.828;5.688;2023-07-09T05:30:28;24.10;99.90
42245;DHT22;27912;51.828;5.688;2023-07-09T05:32:53;24.40;99.90
42245;DHT22;27912;51.828;5.688;2023-07-09T05:35:21;24.60;99.90
42245;DHT22;27912;51.828;5.688;2023-07-09T05:37:47;24.90;99.90
42245;DHT22;27912;51.828;5.688;2023-07-09T05:40:12;25.10;99.90
42245;DHT22;27912;51.828;5.688;2023-07-09T05:42:38;25.30;99.90
42245;DHT22;27912;51.828;5.688;2023-07-09T05:45:04;25.40;99.90
42245;DHT22;27912;51.828;5.688;2023-07-09T05:47:30;25.50;99.90
42245;DHT22;27912;51.828;5.688;2023-07-09T05:49:55;25.60;99.90
42245;DHT22;27912;51.828;5.688;2023-07-09T05:52:22;25.70;99.90
42245;DHT22;27912;51.828;5.688;2023-07-09T05:54:51;25.80;99.90
42245;DHT22;27912;51.828;5.688;2023-07-09T05:57:18;25.80;99.90
42245;DHT22;27912;51.828;5.688;2023-07-09T05:59:43;25.90;99.90
42245;DHT22;27912;51.828;5.688;2023-07-09T06:02:13;25.80;99.90
42245;DHT22;27912;51.828;5.688;2023-07-09T06:04:39;25.80;99.90
42245;DHT22;27912;51.828;5.688;2023-07-09T06:07:05;25.90;99.90
42245;DHT22;27912;51.828;5.688;2023-07-09T06:09:31;26.00;99.90
42245;DHT22;27912;51.828;5.688;2023-07-09T06:11:57;26.10;99.90
42245;DHT22;27912;51.828;5.688;2023-07-09T06:14:23;26.20;99.90
42245;DHT22;27912;51.828;5.688;2023-07-09T06:16:48;26.30;99.90
42245;DHT22;27912;51.828;5.688;2023-07-09T06:19:14;26.40;99.90
42245;DHT22;27912;51.828;5.688;2023-07-09T06:21:40;26.50;99.90
42245;DHT22;27912;51.828;5.688;2023-07-09T06:24:07;26.60;99.90
42245;DHT22;27912;51.828;5.688;2023-07-09T06:26:33;26.70;99.90
42245;DHT22;27912;51.828;5.688;2023-07-09T06:28:59;26.70;99.90
42245;DHT22;27912;51.828;5.688;2023-07-09T06:31:24;26.90;99.90
42245;DHT22;27912;51.828;5.688;2023-07-09T06:33:50;27.00;99.90
42245;DHT22;27912;51.828;5.688;2023-07-09T06:36:17;27.10;99.90
42245;DHT22;27912;51.828;5.688;2023-07-09T06:38:43;27.30;99.90
42245;DHT22;27912;51.828;5.688;2023-07-09T06:41:10;27.30;99.90
42245;DHT22;27912;51.828;5.688;2023-07-09T06:43:35;27.30;99.90
42245;DHT22;27912;51.828;5.688;2023-07-09T06:46:04;27.40;99.90
42245;DHT22;27912;51.828;5.688;2023-07-09T06:48:30;27.40;99.90
42245;DHT22;27912;51.828;5.688;2023-07-09T06:50:57;27.40;99.90
42245;DHT22;27912;51.828;5.688;2023-07-09T06:53:23;27.50;99.90
42245;DHT22;27912;51.828;5.688;2023-07-09T06:55:49;27.50;99.90
42245;DHT22;27912;51.828;5.688;2023-07-09T06:58:18;27.60;99.90
42245;DHT22;27912;51.828;5.688;2023-07-09T07:00:45;27.70;99.90
42245;DHT22;27912;51.828;5.688;2023-07-09T07:03:11;27.80;99.90
42245;DHT22;27912;51.828;5.688;2023-07-09T07:05:36;27.90;99.90
42245;DHT22;27912;51.828;5.688;2023-07-09T07:08:03;28.00;99.90
42245;DHT22;27912;51.828;5.688;2023-07-09T07:10:29;28.00;99.90
42245;DHT22;27912;51.828;5.688;2023-07-09T07:12:55;28.10;99.90
42245;DHT22;27912;51.828;5.688;2023-07-09T07:15:21;28.20;99.90
42245;DHT22;27912;51.828;5.688;2023-07-09T07:17:46;28.30;99.90
42245;DHT22;27912;51.828;5.688;2023-07-09T07:20:13;28.30;99.90
42245;DHT22;27912;51.828;5.688;2023-07-09T07:22:39;28.40;99.90
42245;DHT22;27912;51.828;5.688;2023-07-09T07:25:06;28.50;99.90
42245;DHT22;27912;51.828;5.688;2023-07-09T07:27:32;28.60;99.90
42245;DHT22;27912;51.828;5.688;2023-07-09T07:29:57;28.70;99.90
42245;DHT22;27912;51.828;5.688;2023-07-09T07:32:23;28.80;99.80
42245;DHT22;27912;51.828;5.688;2023-07-09T07:34:49;28.80;99.00
42245;DHT22;27912;51.828;5.688;2023-07-09T07:37:18;28.90;98.70
42245;DHT22;27912;51.828;5.688;2023-07-09T07:39:47;29.10;98.20
42245;DHT22;27912;51.828;5.688;2023-07-09T07:42:13;29.20;97.90
42245;DHT22;27912;51.828;5.688;2023-07-09T07:44:49;29.20;97.50
42245;DHT22;27912;51.828;5.688;2023-07-09T07:47:14;29.40;97.20
42245;DHT22;27912;51.828;5.688;2023-07-09T07:49:40;29.50;97.00
42245;DHT22;27912;51.828;5.688;2023-07-09T07:52:06;29.50;96.60
42245;DHT22;27912;51.828;5.688;2023-07-09T07:54:32;29.60;96.20
42245;DHT22;27912;51.828;5.688;2023-07-09T07:56:58;29.60;95.80
42245;DHT22;27912;51.828;5.688;2023-07-09T07:59:24;29.70;96.00
42245;DHT22;27912;51.828;5.688;2023-07-09T08:01:50;29.70;95.50
42245;DHT22;27912;51.828;5.688;2023-07-09T08:04:16;29.90;95.30
42245;DHT22;27912;51.828;5.688;2023-07-09T08:06:41;30.00;94.90
42245;DHT22;27912;51.828;5.688;2023-07-09T08:09:07;30.00;94.50
42245;DHT22;27912;51.828;5.688;2023-07-09T08:11:33;30.20;94.30
42245;DHT22;27912;51.828;5.688;2023-07-09T08:13:58;30.30;94.00
42245;DHT22;27912;51.828;5.688;2023-07-09T08:16:24;30.30;93.90
42245;DHT22;27912;51.828;5.688;2023-07-09T08:18:50;30.40;93.60
42245;DHT22;27912;51.828;5.688;2023-07-09T08:21:17;30.50;93.60
42245;DHT22;27912;51.828;5.688;2023-07-09T08:23:43;30.60;93.40
42245;DHT22;27912;51.828;5.688;2023-07-09T08:26:09;30.60;93.50
42245;DHT22;27912;51.828;5.688;2023-07-09T08:28:34;30.80;94.00
42245;DHT22;27912;51.828;5.688;2023-07-09T08:31:00;30.90;93.60
42245;DHT22;27912;51.828;5.688;2023-07-09T08:33:26;31.10;92.80
42245;DHT22;27912;51.828;5.688;2023-07-09T08:35:52;31.10;92.30
42245;DHT22;27912;51.828;5.688;2023-07-09T08:38:18;31.20;92.00
42245;DHT22;27912;51.828;5.688;2023-07-09T08:43:39;31.30;91.50
42245;DHT22;27912;51.828;5.688;2023-07-09T08:49:41;31.50;91.20
42245;DHT22;27912;51.828;5.688;2023-07-09T08:52:40;31.70;90.70
42245;DHT22;27912;51.828;5.688;2023-07-09T08:55:28;31.70;90.70
42245;DHT22;27912;51.828;5.688;2023-07-09T08:57:58;31.80;90.40
42245;DHT22;27912;51.828;5.688;2023-07-09T09:00:34;31.90;90.00
42245;DHT22;27912;51.828;5.688;2023-07-09T09:03:10;31.90;89.50
42245;DHT22;27912;51.828;5.688;2023-07-09T09:05:39;32.00;88.30
42245;DHT22;27912;51.828;5.688;2023-07-09T09:11:13;32.20;85.00
42245;DHT22;27912;51.828;5.688;2023-07-09T09:13:41;32.20;84.00
42245;DHT22;27912;51.828;5.688;2023-07-09T09:16:21;32.30;84.90
42245;DHT22;27912;51.828;5.688;2023-07-09T09:18:49;32.40;82.40
42245;DHT22;27912;51.828;5.688;2023-07-09T09:21:23;32.50;82.20
42245;DHT22;27912;51.828;5.688;2023-07-09T09:23:53;32.60;80.80
42245;DHT22;27912;51.828;5.688;2023-07-09T09:26:33;32.60;80.90
42245;DHT22;27912;51.828;5.688;2023-07-09T09:29:00;32.80;80.70
42245;DHT22;27912;51.828;5.688;2023-07-09T09:31:27;32.90;79.30
42245;DHT22;27912;51.828;5.688;2023-07-09T09:33:53;33.00;78.80
42245;DHT22;27912;51.828;5.688;2023-07-09T09:36:24;33.10;77.60
42245;DHT22;27912;51.828;5.688;2023-07-09T09:38:51;33.10;76.50
42245;DHT22;27912;51.828;5.688;2023-07-09T09:41:20;33.20;75.40
42245;DHT22;27912;51.828;5.688;2023-07-09T09:43:48;33.20;75.60
42245;DHT22;27912;51.828;5.688;2023-07-09T09:46:20;33.20;76.50
42245;DHT22;27912;51.828;5.688;2023-07-09T09:48:48;33.30;76.50
42245;DHT22;27912;51.828;5.688;2023-07-09T09:51:14;33.40;75.70
42245;DHT22;27912;51.828;5.688;2023-07-09T09:53:44;33.40;75.50
42245;DHT22;27912;51.828;5.688;2023-07-09T09:56:26;33.60;75.20
42245;DHT22;27912;51.828;5.688;2023-07-09T09:58:54;33.70;75.80
42245;DHT22;27912;51.828;5.688;2023-07-09T10:01:21;33.80;75.50
42245;DHT22;27912;51.828;5.688;2023-07-09T10:03:54;33.90;74.60
42245;DHT22;27912;51.828;5.688;2023-07-09T10:06:34;33.90;73.00
42245;DHT22;27912;51.828;5.688;2023-07-09T10:09:46;33.90;72.50
42245;DHT22;27912;51.828;5.688;2023-07-09T10:12:48;33.80;72.30
42245;DHT22;27912;51.828;5.688;2023-07-09T10:18:02;33.90;72.10
42245;DHT22;27912;51.828;5.688;2023-07-09T10:26:18;34.00;70.30
42245;DHT22;27912;51.828;5.688;2023-07-09T10:31:38;34.20;70.50
42245;DHT22;27912;51.828;5.688;2023-07-09T10:34:31;34.40;70.70
42245;DHT22;27912;51.828;5.688;2023-07-09T10:37:22;34.50;69.70
42245;DHT22;27912;51.828;5.688;2023-07-09T10:39:57;34.60;69.40
42245;DHT22;27912;51.828;5.688;2023-07-09T10:42:44;34.70;68.20
42245;DHT22;27912;51.828;5.688;2023-07-09T10:45:19;34.70;67.70
42245;DHT22;27912;51.828;5.688;2023-07-09T10:47:55;34.70;66.40
42245;DHT22;27912;51.828;5.688;2023-07-09T10:50:32;34.70;65.70
42245;DHT22;27912;51.828;5.688;2023-07-09T10:53:09;34.60;65.40
42245;DHT22;27912;51.828;5.688;2023-07-09T10:55:55;34.60;65.30
42245;DHT22;27912;51.828;5.688;2023-07-09T10:58:46;34.70;65.10
42245;DHT22;27912;51.828;5.688;2023-07-09T11:01:15;35.00;64.80
42245;DHT22;27912;51.828;5.688;2023-07-09T11:03:57;35.10;64.20
42245;DHT22;27912;51.828;5.688;2023-07-09T11:06:44;35.30;63.60
42245;DHT22;27912;51.828;5.688;2023-07-09T11:09:26;35.40;62.80
42245;DHT22;27912;51.828;5.688;2023-07-09T11:11:56;35.50;62.50
42245;DHT22;27912;51.828;5.688;2023-07-09T11:14:41;35.50;62.30
42245;DHT22;27912;51.828;5.688;2023-07-09T11:17:14;35.60;62.20
42245;DHT22;27912;51.828;5.688;2023-07-09T11:19:42;35.70;62.90
42245;DHT22;27912;51.828;5.688;2023-07-09T11:22:16;35.90;62.30
42245;DHT22;27912;51.828;5.688;2023-07-09T11:24:48;36.00;60.90
42245;DHT22;27912;51.828;5.688;2023-07-09T11:27:24;36.10;60.80
42245;DHT22;27912;51.828;5.688;2023-07-09T11:30:01;36.10;60.40
42245;DHT22;27912;51.828;5.688;2023-07-09T11:32:28;36.10;61.00
42245;DHT22;27912;51.828;5.688;2023-07-09T11:34:54;36.10;61.00
42245;DHT22;27912;51.828;5.688;2023-07-09T11:37:30;36.30;59.90
42245;DHT22;27912;51.828;5.688;2023-07-09T11:40:06;36.30;58.60
42245;DHT22;27912;51.828;5.688;2023-07-09T11:42:57;36.20;58.50
42245;DHT22;27912;51.828;5.688;2023-07-09T11:45:27;36.20;58.70
42245;DHT22;27912;51.828;5.688;2023-07-09T11:48:13;36.20;58.50
42245;DHT22;27912;51.828;5.688;2023-07-09T11:50:46;36.20;58.60
42245;DHT22;27912;51.828;5.688;2023-07-09T11:53:54;36.20;60.10
42245;DHT22;27912;51.828;5.688;2023-07-09T11:56:24;36.00;59.70
42245;DHT22;27912;51.828;5.688;2023-07-09T11:58:52;35.90;59.30
42245;DHT22;27912;51.828;5.688;2023-07-09T12:01:22;35.90;59.60
42245;DHT22;27912;51.828;5.688;2023-07-09T12:03:49;35.70;60.50
42245;DHT22;27912;51.828;5.688;2023-07-09T12:06:23;35.60;60.70
42245;DHT22;27912;51.828;5.688;2023-07-09T12:08:50;35.50;61.40
42245;DHT22;27912;51.828;5.688;2023-07-09T12:11:33;35.40;61.40
42245;DHT22;27912;51.828;5.688;2023-07-09T12:14:05;35.30;61.70
42245;DHT22;27912;51.828;5.688;2023-07-09T12:16:45;35.20;63.00
42245;DHT22;27912;51.828;5.688;2023-07-09T12:19:13;35.10;64.40
42245;DHT22;27912;51.828;5.688;2023-07-09T12:21:41;35.00;65.00
42245;DHT22;27912;51.828;5.688;2023-07-09T12:24:22;34.90;65.20
42245;DHT22;27912;51.828;5.688;2023-07-09T12:26:59;34.70;65.20
42245;DHT22;27912;51.828;5.688;2023-07-09T12:29:26;34.60;66.30
42245;DHT22;27912;51.828;5.688;2023-07-09T12:31:52;34.60;66.70
42245;DHT22;27912;51.828;5.688;2023-07-09T12:34:18;34.50;66.20
42245;DHT22;27912;51.828;5.688;2023-07-09T12:36:48;34.50;66.10
42245;DHT22;27912;51.828;5.688;2023-07-09T12:39:29;34.50;66.10
42245;DHT22;27912;51.828;5.688;2023-07-09T12:42:14;34.40;66.80
42245;DHT22;27912;51.828;5.688;2023-07-09T12:44:41;34.40;67.50
42245;DHT22;27912;51.828;5.688;2023-07-09T12:47:15;34.40;67.50
42245;DHT22;27912;51.828;5.688;2023-07-09T12:49:43;34.40;67.00
42245;DHT22;27912;51.828;5.688;2023-07-09T12:52:22;34.50;67.50
42245;DHT22;27912;51.828;5.688;2023-07-09T12:55:23;34.50;67.10
42245;DHT22;27912;51.828;5.688;2023-07-09T12:57:57;34.40;67.20
42245;DHT22;27912;51.828;5.688;2023-07-09T13:00:29;34.40;67.30
42245;DHT22;27912;51.828;5.688;2023-07-09T13:02:57;34.40;67.20
42245;DHT22;27912;51.828;5.688;2023-07-09T13:05:24;34.40;67.20
42245;DHT22;27912;51.828;5.688;2023-07-09T13:07:58;34.30;67.50
42245;DHT22;27912;51.828;5.688;2023-07-09T13:10:28;34.30;67.30
42245;DHT22;27912;51.828;5.688;2023-07-09T13:12:56;34.20;67.50
42245;DHT22;27912;51.828;5.688;2023-07-09T13:15:29;34.20;68.20
42245;DHT22;27912;51.828;5.688;2023-07-09T13:18:00;34.10;69.80
42245;DHT22;27912;51.828;5.688;2023-07-09T13:20:26;33.80;71.30
42245;DHT22;27912;51.828;5.688;2023-07-09T13:22:52;33.50;73.50
42245;DHT22;27912;51.828;5.688;2023-07-09T13:25:18;33.10;75.00
42245;DHT22;27912;51.828;5.688;2023-07-09T13:27:43;32.70;76.50
42245;DHT22;27912;51.828;5.688;2023-07-09T13:30:10;32.40;77.80
42245;DHT22;27912;51.828;5.688;2023-07-09T13:32:36;32.10;76.80
42245;DHT22;27912;51.828;5.688;2023-07-09T13:35:02;31.70;77.30
42245;DHT22;27912;51.828;5.688;2023-07-09T13:37:29;31.40;78.00
42245;DHT22;27912;51.828;5.688;2023-07-09T13:39:54;31.20;78.40
42245;DHT22;27912;51.828;5.688;2023-07-09T13:42:20;30.90;79.10
42245;DHT22;27912;51.828;5.688;2023-07-09T13:44:46;30.70;79.90
42245;DHT22;27912;51.828;5.688;2023-07-09T13:47:14;30.40;80.70
42245;DHT22;27912;51.828;5.688;2023-07-09T13:49:42;30.10;81.20
42245;DHT22;27912;51.828;5.688;2023-07-09T13:52:15;30.00;81.80
42245;DHT22;27912;51.828;5.688;2023-07-09T13:54:41;29.80;82.00
42245;DHT22;27912;51.828;5.688;2023-07-09T13:57:13;29.60;83.10
42245;DHT22;27912;51.828;5.688;2023-07-09T13:59:40;29.50;83.90
42245;DHT22;27912;51.828;5.688;2023-07-09T14:02:24;29.40;84.50
42245;DHT22;27912;51.828;5.688;2023-07-09T14:04:57;29.30;84.60
42245;DHT22;27912;51.828;5.688;2023-07-09T14:07:36;29.20;84.80
42245;DHT22;27912;51.828;5.688;2023-07-09T14:10:06;29.10;85.00
42245;DHT22;27912;51.828;5.688;2023-07-09T14:12:43;29.00;85.20
42245;DHT22;27912;51.828;5.688;2023-07-09T14:15:19;28.90;85.30
42245;DHT22;27912;51.828;5.688;2023-07-09T14:17:45;28.80;86.00
42245;DHT22;27912;51.828;5.688;2023-07-09T14:20:17;28.60;86.40
42245;DHT22;27912;51.828;5.688;2023-07-09T14:22:43;28.40;86.90
42245;DHT22;27912;51.828;5.688;2023-07-09T14:25:25;28.10;87.80
42245;DHT22;27912;51.828;5.688;2023-07-09T14:27:53;27.90;88.60
42245;DHT22;27912;51.828;5.688;2023-07-09T14:30:21;27.70;89.60
42245;DHT22;27912;51.828;5.688;2023-07-09T14:32:48;27.50;90.50
42245;DHT22;27912;51.828;5.688;2023-07-09T14:35:22;27.30;90.90
42245;DHT22;27912;51.828;5.688;2023-07-09T14:37:50;27.10;91.70
42245;DHT22;27912;51.828;5.688;2023-07-09T14:40:17;26.90;92.20
42245;DHT22;27912;51.828;5.688;2023-07-09T14:42:43;26.70;93.60
42245;DHT22;27912;51.828;5.688;2023-07-09T14:47:43;25.50;98.00
42245;DHT22;27912;51.828;5.688;2023-07-09T14:50:08;25.00;99.90
42245;DHT22;27912;51.828;5.688;2023-07-09T14:52:35;24.50;99.90
42245;DHT22;27912;51.828;5.688;2023-07-09T14:55:01;24.20;99.90
42245;DHT22;27912;51.828;5.688;2023-07-09T14:57:27;24.00;99.90
42245;DHT22;27912;51.828;5.688;2023-07-09T14:59:56;23.90;99.90
42245;DHT22;27912;51.828;5.688;2023-07-09T15:04:48;24.00;99.90
42245;DHT22;27912;51.828;5.688;2023-07-09T15:07:15;24.10;99.90
42245;DHT22;27912;51.828;5.688;2023-07-09T15:09:40;24.20;99.90
42245;DHT22;27912;51.828;5.688;2023-07-09T15:12:16;24.20;99.90
42245;DHT22;27912;51.828;5.688;2023-07-09T15:14:43;24.30;99.90
42245;DHT22;27912;51.828;5.688;2023-07-09T15:17:11;24.30;99.90
42245;DHT22;27912;51.828;5.688;2023-07-09T15:19:37;24.30;99.90
42245;DHT22;27912;51.828;5.688;2023-07-09T15:22:03;24.20;99.90
42245;DHT22;27912;51.828;5.688;2023-07-09T15:24:32;24.30;99.90
42245;DHT22;27912;51.828;5.688;2023-07-09T15:27:00;24.30;99.90
42245;DHT22;27912;51.828;5.688;2023-07-09T15:29:27;24.30;99.90
42245;DHT22;27912;51.828;5.688;2023-07-09T15:31:53;24.30;99.90
42245;DHT22;27912;51.828;5.688;2023-07-09T15:34:18;24.30;99.90
42245;DHT22;27912;51.828;5.688;2023-07-09T15:36:49;24.30;99.90
42245;DHT22;27912;51.828;5.688;2023-07-09T15:39:16;24.40;99.90
42245;DHT22;27912;51.828;5.688;2023-07-09T15:41:42;24.30;99.90
42245;DHT22;27912;51.828;5.688;2023-07-09T15:44:12;24.40;99.90
42245;DHT22;27912;51.828;5.688;2023-07-09T15:46:39;24.40;99.90
42245;DHT22;27912;51.828;5.688;2023-07-09T15:49:06;24.40;99.90
42245;DHT22;27912;51.828;5.688;2023-07-09T15:51:32;24.50;99.90
42245;DHT22;27912;51.828;5.688;2023-07-09T15:53:57;24.50;99.90
42245;DHT22;27912;51.828;5.688;2023-07-09T15:56:28;24.50;99.90
42245;DHT22;27912;51.828;5.688;2023-07-09T15:58:55;24.50;99.90
42245;DHT22;27912;51.828;5.688;2023-07-09T16:01:21;24.50;99.90
42245;DHT22;27912;51.828;5.688;2023-07-09T16:03:49;24.50;99.90
42245;DHT22;27912;51.828;5.688;2023-07-09T16:06:17;24.60;99.90
42245;DHT22;27912;51.828;5.688;2023-07-09T16:08:43;24.60;99.90
42245;DHT22;27912;51.828;5.688;2023-07-09T16:11:20;24.60;99.90